sensor_id;sensor_type;location;lat;lon;timestamp;temperature;humidity
70166;SHT30;57541;47.408;18.822;2022-12-18T00:00:05;-2.08;91.57
70166;SHT30;57541;47.408;18.822;2022-12-18T00:00:41;-2.04;91.80
70166;SHT30;57541;47.408;18.822;2022-12-18T00:01:21;-2.02;91.69
70166;SHT30;57541;47.408;18.822;2022-12-18T00:01:57;-2.06;91.74
70166;SHT30;57541;47.408;18.822;2022-12-18T00:02:29;-2.08;92.03
70166;SHT30;57541;47.408;18.822;2022-12-18T00:03:01;-2.05;91.99
70166;SHT30;57541;47.408;18.822;2022-12-18T00:03:33;-2.05;92.19
70166;SHT30;57541;47.408;18.822;2022-12-18T00:04:10;-2.05;91.81
70166;SHT30;57541;47.408;18.822;2022-12-18T00:04:46;-2.04;91.64
70166;SHT30;57541;47.408;18.822;2022-12-18T00:05:18;-2.02;91.68
70166;SHT30;57541;47.408;18.822;2022-12-18T00:05:50;-2.04;91.50
70166;SHT30;57541;47.408;18.822;2022-12-18T00:06:23;-2.04;91.46
70166;SHT30;57541;47.408;18.822;2022-12-18T00:06:55;-1.98;91.30
70166;SHT30;57541;47.408;18.822;2022-12-18T00:07:27;-1.99;91.20
70166;SHT30;57541;47.408;18.822;2022-12-18T00:07:59;-1.98;91.63
70166;SHT30;57541;47.408;18.822;2022-12-18T00:08:32;-1.99;91.51
70166;SHT30;57541;47.408;18.822;2022-12-18T00:09:03;-1.98;91.44
70166;SHT30;57541;47.408;18.822;2022-12-18T00:09:35;-1.97;91.36
70166;SHT30;57541;47.408;18.822;2022-12-18T00:10:10;-1.90;91.13
70166;SHT30;57541;47.408;18.822;2022-12-18T00:10:45;-1.93;90.93
70166;SHT30;57541;47.408;18.822;2022-12-18T00:11:20;-1.97;90.92
70166;SHT30;57541;47.408;18.822;2022-12-18T00:11:51;-1.99;91.16
70166;SHT30;57541;47.408;18.822;2022-12-18T00:12:23;-1.94;91.28
70166;SHT30;57541;47.408;18.822;2022-12-18T00:12:54;-1.95;91.18
70166;SHT30;57541;47.408;18.822;2022-12-18T00:13:27;-2.01;91.25
70166;SHT30;57541;47.408;18.822;2022-12-18T00:13:59;-1.99;91.20
70166;SHT30;57541;47.408;18.822;2022-12-18T00:14:31;-2.06;91.38
70166;SHT30;57541;47.408;18.822;2022-12-18T00:15:03;-2.04;91.55
70166;SHT30;57541;47.408;18.822;2022-12-18T00:15:36;-2.09;91.63
70166;SHT30;57541;47.408;18.822;2022-12-18T00:16:11;-2.09;91.69
70166;SHT30;57541;47.408;18.822;2022-12-18T00:16:44;-2.11;91.82
70166;SHT30;57541;47.408;18.822;2022-12-18T00:17:16;-2.11;91.98
70166;SHT30;57541;47.408;18.822;2022-12-18T00:17:48;-2.08;92.27
70166;SHT30;57541;47.408;18.822;2022-12-18T00:18:20;-2.06;92.15
70166;SHT30;57541;47.408;18.822;2022-12-18T00:18:53;-2.12;91.90
70166;SHT30;57541;47.408;18.822;2022-12-18T00:19:24;-2.15;92.00
70166;SHT30;57541;47.408;18.822;2022-12-18T00:19:56;-2.09;91.83
70166;SHT30;57541;47.408;18.822;2022-12-18T00:20:28;-2.14;91.99
70166;SHT30;57541;47.408;18.822;2022-12-18T00:21:01;-2.15;92.33
70166;SHT30;57541;47.408;18.822;2022-12-18T00:21:33;-2.18;92.25
70166;SHT30;57541;47.408;18.822;2022-12-18T00:22:05;-2.16;92.27
70166;SHT30;57541;47.408;18.822;2022-12-18T00:22:37;-2.23;92.35
70166;SHT30;57541;47.408;18.822;2022-12-18T00:23:09;-2.22;92.51
70166;SHT30;57541;47.408;18.822;2022-12-18T00:23:42;-2.14;92.49
70166;SHT30;57541;47.408;18.822;2022-12-18T00:24:14;-2.15;92.15
70166;SHT30;57541;47.408;18.822;2022-12-18T00:24:46;-2.15;92.21
70166;SHT30;57541;47.408;18.822;2022-12-18T00:25:17;-2.16;92.10
70166;SHT30;57541;47.408;18.822;2022-12-18T00:25:49;-2.14;92.17
70166;SHT30;57541;47.408;18.822;2022-12-18T00:26:28;-2.21;92.23
70166;SHT30;57541;47.408;18.822;2022-12-18T00:27:00;-2.23;92.64
70166;SHT30;57541;47.408;18.822;2022-12-18T00:27:32;-2.23;92.70
70166;SHT30;57541;47.408;18.822;2022-12-18T00:28:04;-2.22;92.64
70166;SHT30;57541;47.408;18.822;2022-12-18T00:28:35;-2.19;92.69
70166;SHT30;57541;47.408;18.822;2022-12-18T00:29:10;-2.22;92.84
70166;SHT30;57541;47.408;18.822;2022-12-18T00:29:42;-2.25;92.78
70166;SHT30;57541;47.408;18.822;2022-12-18T00:30:14;-2.28;92.91
70166;SHT30;57541;47.408;18.822;2022-12-18T00:30:46;-2.35;93.13
70166;SHT30;57541;47.408;18.822;2022-12-18T00:31:20;-2.32;93.10
70166;SHT30;57541;47.408;18.822;2022-12-18T00:31:52;-2.23;93.14
70166;SHT30;57541;47.408;18.822;2022-12-18T00:32:24;-2.26;93.19
70166;SHT30;57541;47.408;18.822;2022-12-18T00:32:57;-2.26;93.08
70166;SHT30;57541;47.408;18.822;2022-12-18T00:33:29;-2.26;93.02
70166;SHT30;57541;47.408;18.822;2022-12-18T00:34:01;-2.29;93.03
70166;SHT30;57541;47.408;18.822;2022-12-18T00:34:33;-2.28;93.25
70166;SHT30;57541;47.408;18.822;2022-12-18T00:35:05;-2.26;93.10
70166;SHT30;57541;47.408;18.822;2022-12-18T00:35:37;-2.33;92.94
70166;SHT30;57541;47.408;18.822;2022-12-18T00:36:14;-2.29;93.03
70166;SHT30;57541;47.408;18.822;2022-12-18T00:36:47;-2.31;93.08
70166;SHT30;57541;47.408;18.822;2022-12-18T00:37:19;-2.29;93.09
70166;SHT30;57541;47.408;18.822;2022-12-18T00:37:50;-2.29;93.25
70166;SHT30;57541;47.408;18.822;2022-12-18T00:38:22;-2.29;93.26
70166;SHT30;57541;47.408;18.822;2022-12-18T00:38:55;-2.31;93.31
70166;SHT30;57541;47.408;18.822;2022-12-18T00:39:27;-2.38;93.30
70166;SHT30;57541;47.408;18.822;2022-12-18T00:39:58;-2.38;93.35
70166;SHT30;57541;47.408;18.822;2022-12-18T00:40:30;-2.35;93.75
70166;SHT30;57541;47.408;18.822;2022-12-18T00:41:02;-2.33;93.74
70166;SHT30;57541;47.408;18.822;2022-12-18T00:41:34;-2.31;93.57
70166;SHT30;57541;47.408;18.822;2022-12-18T00:42:24;-2.33;93.51
70166;SHT30;57541;47.408;18.822;2022-12-18T00:43:14;-2.31;93.62
70166;SHT30;57541;47.408;18.822;2022-12-18T00:43:46;-2.26;93.30
70166;SHT30;57541;47.408;18.822;2022-12-18T00:44:18;-2.26;93.19
70166;SHT30;57541;47.408;18.822;2022-12-18T00:44:50;-2.28;93.23
70166;SHT30;57541;47.408;18.822;2022-12-18T00:45:26;-2.26;93.09
70166;SHT30;57541;47.408;18.822;2022-12-18T00:45:58;-2.19;93.11
70166;SHT30;57541;47.408;18.822;2022-12-18T00:46:30;-2.26;93.04
70166;SHT30;57541;47.408;18.822;2022-12-18T00:47:02;-2.19;92.98
70166;SHT30;57541;47.408;18.822;2022-12-18T00:47:33;-2.18;92.82
70166;SHT30;57541;47.408;18.822;2022-12-18T00:48:05;-2.21;92.85
70166;SHT30;57541;47.408;18.822;2022-12-18T00:48:36;-2.22;92.81
70166;SHT30;57541;47.408;18.822;2022-12-18T00:49:09;-2.29;92.96
70166;SHT30;57541;47.408;18.822;2022-12-18T00:49:40;-2.33;93.37
70166;SHT30;57541;47.408;18.822;2022-12-18T00:50:12;-2.33;93.58
70166;SHT30;57541;47.408;18.822;2022-12-18T00:50:44;-2.33;93.59
70166;SHT30;57541;47.408;18.822;2022-12-18T00:51:16;-2.35;93.58
70166;SHT30;57541;47.408;18.822;2022-12-18T00:51:47;-2.36;93.53
70166;SHT30;57541;47.408;18.822;2022-12-18T00:52:19;-2.41;93.56
70166;SHT30;57541;47.408;18.822;2022-12-18T00:52:51;-2.41;93.71
70166;SHT30;57541;47.408;18.822;2022-12-18T00:53:22;-2.48;93.86
70166;SHT30;57541;47.408;18.822;2022-12-18T00:53:54;-2.42;94.11
70166;SHT30;57541;47.408;18.822;2022-12-18T00:54:26;-2.36;93.83
70166;SHT30;57541;47.408;18.822;2022-12-18T00:54:57;-2.41;93.81
70166;SHT30;57541;47.408;18.822;2022-12-18T00:55:39;-2.43;93.88
70166;SHT30;57541;47.408;18.822;2022-12-18T00:56:11;-2.46;93.99
70166;SHT30;57541;47.408;18.822;2022-12-18T00:56:43;-2.36;93.96
70166;SHT30;57541;47.408;18.822;2022-12-18T00:57:19;-2.41;93.80
70166;SHT30;57541;47.408;18.822;2022-12-18T00:57:51;-2.38;93.74
70166;SHT30;57541;47.408;18.822;2022-12-18T00:58:23;-2.35;93.57
70166;SHT30;57541;47.408;18.822;2022-12-18T00:58:55;-2.38;93.56
70166;SHT30;57541;47.408;18.822;2022-12-18T00:59:26;-2.32;93.73
70166;SHT30;57541;47.408;18.822;2022-12-18T00:59:58;-2.32;93.47
70166;SHT30;57541;47.408;18.822;2022-12-18T01:00:30;-2.28;93.35
70166;SHT30;57541;47.408;18.822;2022-12-18T01:01:04;-2.26;93.35
70166;SHT30;57541;47.408;18.822;2022-12-18T01:01:35;-2.36;93.32
70166;SHT30;57541;47.408;18.822;2022-12-18T01:02:07;-2.36;93.51
70166;SHT30;57541;47.408;18.822;2022-12-18T01:02:40;-2.41;93.56
70166;SHT30;57541;47.408;18.822;2022-12-18T01:03:13;-2.43;93.57
70166;SHT30;57541;47.408;18.822;2022-12-18T01:03:45;-2.43;93.73
70166;SHT30;57541;47.408;18.822;2022-12-18T01:04:18;-2.45;93.97
70166;SHT30;57541;47.408;18.822;2022-12-18T01:04:49;-2.42;93.82
70166;SHT30;57541;47.408;18.822;2022-12-18T01:05:21;-2.46;93.89
70166;SHT30;57541;47.408;18.822;2022-12-18T01:05:53;-2.41;93.88
70166;SHT30;57541;47.408;18.822;2022-12-18T01:06:24;-2.32;93.70
70166;SHT30;57541;47.408;18.822;2022-12-18T01:06:56;-2.38;93.54
70166;SHT30;57541;47.408;18.822;2022-12-18T01:07:28;-2.32;93.63
70166;SHT30;57541;47.408;18.822;2022-12-18T01:07:59;-2.32;93.34
70166;SHT30;57541;47.408;18.822;2022-12-18T01:08:31;-2.36;93.28
70166;SHT30;57541;47.408;18.822;2022-12-18T01:09:03;-2.38;93.32
70166;SHT30;57541;47.408;18.822;2022-12-18T01:09:34;-2.41;93.49
70166;SHT30;57541;47.408;18.822;2022-12-18T01:10:07;-2.33;93.61
70166;SHT30;57541;47.408;18.822;2022-12-18T01:10:42;-2.41;93.39
70166;SHT30;57541;47.408;18.822;2022-12-18T01:11:17;-2.46;93.59
70166;SHT30;57541;47.408;18.822;2022-12-18T01:11:48;-2.41;93.78
70166;SHT30;57541;47.408;18.822;2022-12-18T01:12:20;-2.42;93.77
70166;SHT30;57541;47.408;18.822;2022-12-18T01:12:52;-2.42;93.83
70166;SHT30;57541;47.408;18.822;2022-12-18T01:13:23;-2.43;93.79
70166;SHT30;57541;47.408;18.822;2022-12-18T01:13:55;-2.42;93.69
70166;SHT30;57541;47.408;18.822;2022-12-18T01:14:26;-2.46;93.47
70166;SHT30;57541;47.408;18.822;2022-12-18T01:14:58;-2.53;93.73
70166;SHT30;57541;47.408;18.822;2022-12-18T01:15:30;-2.50;93.90
70166;SHT30;57541;47.408;18.822;2022-12-18T01:16:01;-2.53;94.09
70166;SHT30;57541;47.408;18.822;2022-12-18T01:16:33;-2.53;93.97
70166;SHT30;57541;47.408;18.822;2022-12-18T01:17:05;-2.52;93.93
70166;SHT30;57541;47.408;18.822;2022-12-18T01:17:36;-2.56;93.98
70166;SHT30;57541;47.408;18.822;2022-12-18T01:18:08;-2.53;94.27
70166;SHT30;57541;47.408;18.822;2022-12-18T01:18:40;-2.54;94.26
70166;SHT30;57541;47.408;18.822;2022-12-18T01:19:11;-2.52;94.10
70166;SHT30;57541;47.408;18.822;2022-12-18T01:19:43;-2.54;93.87
70166;SHT30;57541;47.408;18.822;2022-12-18T01:20:15;-2.52;93.93
70166;SHT30;57541;47.408;18.822;2022-12-18T01:20:47;-2.52;93.85
70166;SHT30;57541;47.408;18.822;2022-12-18T01:21:18;-2.48;94.16
70166;SHT30;57541;47.408;18.822;2022-12-18T01:21:50;-2.45;94.17
70166;SHT30;57541;47.408;18.822;2022-12-18T01:22:21;-2.39;93.95
70166;SHT30;57541;47.408;18.822;2022-12-18T01:22:53;-2.39;93.74
70166;SHT30;57541;47.408;18.822;2022-12-18T01:23:25;-2.36;93.64
70166;SHT30;57541;47.408;18.822;2022-12-18T01:23:56;-2.42;93.85
70166;SHT30;57541;47.408;18.822;2022-12-18T01:24:28;-2.48;94.16
70166;SHT30;57541;47.408;18.822;2022-12-18T01:25:00;-2.42;94.22
70166;SHT30;57541;47.408;18.822;2022-12-18T01:25:31;-2.45;93.80
70166;SHT30;57541;47.408;18.822;2022-12-18T01:26:14;-2.48;93.97
70166;SHT30;57541;47.408;18.822;2022-12-18T01:26:46;-2.45;93.80
70166;SHT30;57541;47.408;18.822;2022-12-18T01:27:18;-2.43;93.75
70166;SHT30;57541;47.408;18.822;2022-12-18T01:27:49;-2.53;93.91
70166;SHT30;57541;47.408;18.822;2022-12-18T01:28:21;-2.46;93.88
70166;SHT30;57541;47.408;18.822;2022-12-18T01:28:54;-2.45;93.56
70166;SHT30;57541;47.408;18.822;2022-12-18T01:29:25;-2.45;93.75
70166;SHT30;57541;47.408;18.822;2022-12-18T01:29:57;-2.49;93.76
70166;SHT30;57541;47.408;18.822;2022-12-18T01:30:29;-2.57;94.00
70166;SHT30;57541;47.408;18.822;2022-12-18T01:31:39;-2.46;93.96
70166;SHT30;57541;47.408;18.822;2022-12-18T01:32:10;-2.45;93.62
70166;SHT30;57541;47.408;18.822;2022-12-18T01:32:42;-2.43;93.57
70166;SHT30;57541;47.408;18.822;2022-12-18T01:33:14;-2.49;93.61
70166;SHT30;57541;47.408;18.822;2022-12-18T01:33:49;-2.49;93.93
70166;SHT30;57541;47.408;18.822;2022-12-18T01:34:23;-2.49;93.95
70166;SHT30;57541;47.408;18.822;2022-12-18T01:34:54;-2.49;93.95
70166;SHT30;57541;47.408;18.822;2022-12-18T01:35:26;-2.53;94.04
70166;SHT30;57541;47.408;18.822;2022-12-18T01:35:57;-2.57;94.38
70166;SHT30;57541;47.408;18.822;2022-12-18T01:36:31;-2.59;94.72
70166;SHT30;57541;47.408;18.822;2022-12-18T01:37:04;-2.59;94.68
70166;SHT30;57541;47.408;18.822;2022-12-18T01:37:36;-2.67;94.79
70166;SHT30;57541;47.408;18.822;2022-12-18T01:38:08;-2.64;94.84
70166;SHT30;57541;47.408;18.822;2022-12-18T01:38:40;-2.57;94.84
70166;SHT30;57541;47.408;18.822;2022-12-18T01:39:13;-2.59;94.60
70166;SHT30;57541;47.408;18.822;2022-12-18T01:39:45;-2.73;94.55
70166;SHT30;57541;47.408;18.822;2022-12-18T01:40:16;-2.64;94.99
70166;SHT30;57541;47.408;18.822;2022-12-18T01:40:48;-2.60;94.93
70166;SHT30;57541;47.408;18.822;2022-12-18T01:41:25;-2.57;94.79
70166;SHT30;57541;47.408;18.822;2022-12-18T01:41:56;-2.62;95.08
70166;SHT30;57541;47.408;18.822;2022-12-18T01:42:35;-2.62;95.05
70166;SHT30;57541;47.408;18.822;2022-12-18T01:43:08;-2.62;94.67
70166;SHT30;57541;47.408;18.822;2022-12-18T01:43:56;-2.56;94.47
70166;SHT30;57541;47.408;18.822;2022-12-18T01:45:26;-2.48;94.29
70166;SHT30;57541;47.408;18.822;2022-12-18T01:45:59;-2.46;94.21
70166;SHT30;57541;47.408;18.822;2022-12-18T01:46:31;-2.42;94.10
70166;SHT30;57541;47.408;18.822;2022-12-18T01:47:02;-2.43;93.85
70166;SHT30;57541;47.408;18.822;2022-12-18T01:48:11;-2.46;93.91
70166;SHT30;57541;47.408;18.822;2022-12-18T01:48:45;-2.56;93.83
70166;SHT30;57541;47.408;18.822;2022-12-18T01:49:17;-2.52;93.93
70166;SHT30;57541;47.408;18.822;2022-12-18T01:49:50;-2.49;93.98
70166;SHT30;57541;47.408;18.822;2022-12-18T01:50:31;-2.48;94.07
70166;SHT30;57541;47.408;18.822;2022-12-18T01:51:04;-2.52;93.96
70166;SHT30;57541;47.408;18.822;2022-12-18T01:51:36;-2.56;93.95
70166;SHT30;57541;47.408;18.822;2022-12-18T01:52:07;-2.52;94.15
70166;SHT30;57541;47.408;18.822;2022-12-18T01:52:42;-2.49;94.06
70166;SHT30;57541;47.408;18.822;2022-12-18T01:53:17;-2.52;94.12
70166;SHT30;57541;47.408;18.822;2022-12-18T01:53:49;-2.56;94.16
70166;SHT30;57541;47.408;18.822;2022-12-18T01:54:21;-2.53;94.29
70166;SHT30;57541;47.408;18.822;2022-12-18T01:54:52;-2.53;94.15
70166;SHT30;57541;47.408;18.822;2022-12-18T01:55:28;-2.54;94.12
70166;SHT30;57541;47.408;18.822;2022-12-18T01:56:00;-2.53;94.28
70166;SHT30;57541;47.408;18.822;2022-12-18T01:56:32;-2.53;94.31
70166;SHT30;57541;47.408;18.822;2022-12-18T01:57:04;-2.50;94.48
70166;SHT30;57541;47.408;18.822;2022-12-18T01:57:36;-2.50;94.46
70166;SHT30;57541;47.408;18.822;2022-12-18T01:58:08;-2.49;94.31
70166;SHT30;57541;47.408;18.822;2022-12-18T01:58:56;-2.52;94.26
70166;SHT30;57541;47.408;18.822;2022-12-18T01:59:31;-2.42;94.09
70166;SHT30;57541;47.408;18.822;2022-12-18T02:00:08;-2.48;94.07
70166;SHT30;57541;47.408;18.822;2022-12-18T02:01:22;-2.53;93.89
70166;SHT30;57541;47.408;18.822;2022-12-18T02:01:55;-2.53;93.96
70166;SHT30;57541;47.408;18.822;2022-12-18T02:02:28;-2.50;94.08
70166;SHT30;57541;47.408;18.822;2022-12-18T02:03:01;-2.48;94.01
70166;SHT30;57541;47.408;18.822;2022-12-18T02:03:33;-2.45;93.90
70166;SHT30;57541;47.408;18.822;2022-12-18T02:04:24;-2.36;93.84
70166;SHT30;57541;47.408;18.822;2022-12-18T02:04:56;-2.35;93.64
70166;SHT30;57541;47.408;18.822;2022-12-18T02:05:59;-2.36;93.43
70166;SHT30;57541;47.408;18.822;2022-12-18T02:06:37;-2.39;93.82
70166;SHT30;57541;47.408;18.822;2022-12-18T02:08:35;-2.54;94.03
70166;SHT30;57541;47.408;18.822;2022-12-18T02:09:17;-2.56;94.23
70166;SHT30;57541;47.408;18.822;2022-12-18T02:12:23;-2.62;94.52
70166;SHT30;57541;47.408;18.822;2022-12-18T02:14:04;-2.56;94.23
70166;SHT30;57541;47.408;18.822;2022-12-18T02:14:44;-2.57;94.20
70166;SHT30;57541;47.408;18.822;2022-12-18T02:17:04;-2.59;94.59
70166;SHT30;57541;47.408;18.822;2022-12-18T02:17:51;-2.60;94.56
70166;SHT30;57541;47.408;18.822;2022-12-18T02:18:32;-2.67;94.47
70166;SHT30;57541;47.408;18.822;2022-12-18T02:19:43;-2.73;94.49
70166;SHT30;57541;47.408;18.822;2022-12-18T02:20:58;-2.67;94.60
70166;SHT30;57541;47.408;18.822;2022-12-18T02:21:40;-2.69;94.47
70166;SHT30;57541;47.408;18.822;2022-12-18T02:22:37;-2.70;94.46
70166;SHT30;57541;47.408;18.822;2022-12-18T02:26:06;-2.62;94.42
70166;SHT30;57541;47.408;18.822;2022-12-18T02:26:50;-2.70;94.54
70166;SHT30;57541;47.408;18.822;2022-12-18T02:27:24;-2.67;94.54
70166;SHT30;57541;47.408;18.822;2022-12-18T02:28:00;-2.66;94.45
70166;SHT30;57541;47.408;18.822;2022-12-18T02:28:42;-2.70;94.68
70166;SHT30;57541;47.408;18.822;2022-12-18T02:29:16;-2.73;94.84
70166;SHT30;57541;47.408;18.822;2022-12-18T02:29:54;-2.70;94.72
70166;SHT30;57541;47.408;18.822;2022-12-18T02:30:31;-2.69;94.74
70166;SHT30;57541;47.408;18.822;2022-12-18T02:31:08;-2.72;94.60
70166;SHT30;57541;47.408;18.822;2022-12-18T02:31:51;-2.76;95.03
70166;SHT30;57541;47.408;18.822;2022-12-18T02:32:28;-2.80;95.07
70166;SHT30;57541;47.408;18.822;2022-12-18T02:33:02;-2.74;95.07
70166;SHT30;57541;47.408;18.822;2022-12-18T02:33:37;-2.69;95.02
70166;SHT30;57541;47.408;18.822;2022-12-18T02:34:10;-2.69;95.12
70166;SHT30;57541;47.408;18.822;2022-12-18T02:34:44;-2.69;94.72
70166;SHT30;57541;47.408;18.822;2022-12-18T02:35:27;-2.70;94.62
70166;SHT30;57541;47.408;18.822;2022-12-18T02:36:01;-2.73;94.75
70166;SHT30;57541;47.408;18.822;2022-12-18T02:36:34;-2.70;94.78
70166;SHT30;57541;47.408;18.822;2022-12-18T02:37:12;-2.67;94.49
70166;SHT30;57541;47.408;18.822;2022-12-18T02:37:45;-2.69;94.56
70166;SHT30;57541;47.408;18.822;2022-12-18T02:38:18;-2.73;94.68
70166;SHT30;57541;47.408;18.822;2022-12-18T02:38:50;-2.72;94.65
70166;SHT30;57541;47.408;18.822;2022-12-18T02:39:25;-2.72;94.79
70166;SHT30;57541;47.408;18.822;2022-12-18T02:39:58;-2.69;94.81
70166;SHT30;57541;47.408;18.822;2022-12-18T02:40:31;-2.67;94.58
70166;SHT30;57541;47.408;18.822;2022-12-18T02:41:03;-2.73;94.57
70166;SHT30;57541;47.408;18.822;2022-12-18T02:41:35;-2.72;94.75
70166;SHT30;57541;47.408;18.822;2022-12-18T02:42:08;-2.69;94.72
70166;SHT30;57541;47.408;18.822;2022-12-18T02:42:40;-2.64;94.55
70166;SHT30;57541;47.408;18.822;2022-12-18T02:43:14;-2.67;94.47
70166;SHT30;57541;47.408;18.822;2022-12-18T02:43:55;-2.67;94.39
70166;SHT30;57541;47.408;18.822;2022-12-18T02:44:27;-2.72;94.48
70166;SHT30;57541;47.408;18.822;2022-12-18T02:44:58;-2.67;94.53
70166;SHT30;57541;47.408;18.822;2022-12-18T02:45:30;-2.70;94.65
70166;SHT30;57541;47.408;18.822;2022-12-18T02:46:31;-2.80;94.55
70166;SHT30;57541;47.408;18.822;2022-12-18T02:47:03;-2.77;94.88
70166;SHT30;57541;47.408;18.822;2022-12-18T02:47:38;-2.77;95.02
70166;SHT30;57541;47.408;18.822;2022-12-18T02:48:10;-2.76;94.88
70166;SHT30;57541;47.408;18.822;2022-12-18T02:48:42;-2.76;94.93
70166;SHT30;57541;47.408;18.822;2022-12-18T02:50:36;-2.72;94.82
70166;SHT30;57541;47.408;18.822;2022-12-18T02:51:29;-2.70;94.64
70166;SHT30;57541;47.408;18.822;2022-12-18T02:53:19;-2.69;94.51
70166;SHT30;57541;47.408;18.822;2022-12-18T02:54:08;-2.79;94.56
70166;SHT30;57541;47.408;18.822;2022-12-18T02:56:34;-2.93;95.27
70166;SHT30;57541;47.408;18.822;2022-12-18T02:59:35;-2.88;95.19
70166;SHT30;57541;47.408;18.822;2022-12-18T03:00:14;-2.83;95.26
70166;SHT30;57541;47.408;18.822;2022-12-18T03:01:01;-2.80;95.43
70166;SHT30;57541;47.408;18.822;2022-12-18T03:01:51;-2.90;94.81
70166;SHT30;57541;47.408;18.822;2022-12-18T03:02:33;-2.93;95.13
70166;SHT30;57541;47.408;18.822;2022-12-18T03:03:15;-2.88;95.32
70166;SHT30;57541;47.408;18.822;2022-12-18T03:03:54;-2.87;95.25
70166;SHT30;57541;47.408;18.822;2022-12-18T03:04:34;-2.91;95.06
70166;SHT30;57541;47.408;18.822;2022-12-18T03:05:22;-2.94;95.18
70166;SHT30;57541;47.408;18.822;2022-12-18T03:06:16;-2.98;95.29
70166;SHT30;57541;47.408;18.822;2022-12-18T03:06:53;-2.94;95.27
70166;SHT30;57541;47.408;18.822;2022-12-18T03:07:35;-3.01;95.37
70166;SHT30;57541;47.408;18.822;2022-12-18T03:08:43;-2.91;95.14
70166;SHT30;57541;47.408;18.822;2022-12-18T03:09:21;-2.94;94.96
70166;SHT30;57541;47.408;18.822;2022-12-18T03:09:53;-2.91;94.97
70166;SHT30;57541;47.408;18.822;2022-12-18T03:10:29;-2.88;94.97
70166;SHT30;57541;47.408;18.822;2022-12-18T03:11:04;-2.93;94.90
70166;SHT30;57541;47.408;18.822;2022-12-18T03:11:40;-2.91;94.90
70166;SHT30;57541;47.408;18.822;2022-12-18T03:12:35;-2.90;94.79
70166;SHT30;57541;47.408;18.822;2022-12-18T03:13:12;-2.91;94.80
70166;SHT30;57541;47.408;18.822;2022-12-18T03:13:52;-2.91;94.62
70166;SHT30;57541;47.408;18.822;2022-12-18T03:14:30;-2.94;94.72
70166;SHT30;57541;47.408;18.822;2022-12-18T03:15:49;-2.88;94.59
70166;SHT30;57541;47.408;18.822;2022-12-18T03:16:26;-2.88;94.69
70166;SHT30;57541;47.408;18.822;2022-12-18T03:17:02;-2.88;94.65
70166;SHT30;57541;47.408;18.822;2022-12-18T03:17:36;-2.83;94.50
70166;SHT30;57541;47.408;18.822;2022-12-18T03:18:20;-2.93;94.52
70166;SHT30;57541;47.408;18.822;2022-12-18T03:18:59;-2.87;94.59
70166;SHT30;57541;47.408;18.822;2022-12-18T03:19:33;-2.94;94.45
70166;SHT30;57541;47.408;18.822;2022-12-18T03:20:10;-2.91;94.57
70166;SHT30;57541;47.408;18.822;2022-12-18T03:20:44;-2.88;94.44
70166;SHT30;57541;47.408;18.822;2022-12-18T03:21:20;-2.93;94.48
70166;SHT30;57541;47.408;18.822;2022-12-18T03:21:56;-2.94;94.70
70166;SHT30;57541;47.408;18.822;2022-12-18T03:22:30;-2.93;94.73
70166;SHT30;57541;47.408;18.822;2022-12-18T03:23:11;-3.04;94.76
70166;SHT30;57541;47.408;18.822;2022-12-18T03:23:48;-3.04;94.97
70166;SHT30;57541;47.408;18.822;2022-12-18T03:24:21;-3.00;94.93
70166;SHT30;57541;47.408;18.822;2022-12-18T03:24:55;-3.00;95.01
70166;SHT30;57541;47.408;18.822;2022-12-18T03:25:30;-3.05;94.96
70166;SHT30;57541;47.408;18.822;2022-12-18T03:26:07;-2.97;94.82
70166;SHT30;57541;47.408;18.822;2022-12-18T03:26:44;-2.94;94.68
70166;SHT30;57541;47.408;18.822;2022-12-18T03:27:19;-2.95;94.67
70166;SHT30;57541;47.408;18.822;2022-12-18T03:27:56;-3.05;94.80
70166;SHT30;57541;47.408;18.822;2022-12-18T03:28:30;-3.11;95.25
70166;SHT30;57541;47.408;18.822;2022-12-18T03:29:11;-3.08;95.19
70166;SHT30;57541;47.408;18.822;2022-12-18T03:29:49;-3.05;95.15
70166;SHT30;57541;47.408;18.822;2022-12-18T03:30:23;-3.01;95.14
70166;SHT30;57541;47.408;18.822;2022-12-18T03:30:57;-3.05;94.78
70166;SHT30;57541;47.408;18.822;2022-12-18T03:31:31;-3.02;94.67
70166;SHT30;57541;47.408;18.822;2022-12-18T03:32:09;-3.04;94.77
70166;SHT30;57541;47.408;18.822;2022-12-18T03:33:51;-3.14;94.74
70166;SHT30;57541;47.408;18.822;2022-12-18T03:34:29;-3.14;94.97
70166;SHT30;57541;47.408;18.822;2022-12-18T03:35:04;-3.05;95.18
70166;SHT30;57541;47.408;18.822;2022-12-18T03:35:39;-3.01;95.11
70166;SHT30;57541;47.408;18.822;2022-12-18T03:36:12;-3.02;95.07
70166;SHT30;57541;47.408;18.822;2022-12-18T03:36:44;-3.09;95.27
70166;SHT30;57541;47.408;18.822;2022-12-18T03:37:15;-3.08;95.39
70166;SHT30;57541;47.408;18.822;2022-12-18T03:37:47;-3.09;95.39
70166;SHT30;57541;47.408;18.822;2022-12-18T03:38:19;-3.00;95.30
70166;SHT30;57541;47.408;18.822;2022-12-18T03:38:50;-2.94;95.13
70166;SHT30;57541;47.408;18.822;2022-12-18T03:39:23;-2.91;94.96
70166;SHT30;57541;47.408;18.822;2022-12-18T03:39:55;-2.95;94.81
70166;SHT30;57541;47.408;18.822;2022-12-18T03:40:34;-2.94;95.02
70166;SHT30;57541;47.408;18.822;2022-12-18T03:41:44;-2.85;94.60
70166;SHT30;57541;47.408;18.822;2022-12-18T03:42:37;-2.88;94.58
70166;SHT30;57541;47.408;18.822;2022-12-18T03:43:20;-2.91;94.66
70166;SHT30;57541;47.408;18.822;2022-12-18T03:44:09;-2.90;94.48
70166;SHT30;57541;47.408;18.822;2022-12-18T03:44:57;-2.84;94.36
70166;SHT30;57541;47.408;18.822;2022-12-18T03:45:35;-2.87;94.30
70166;SHT30;57541;47.408;18.822;2022-12-18T03:46:23;-2.94;94.43
70166;SHT30;57541;47.408;18.822;2022-12-18T03:47:09;-2.97;94.50
70166;SHT30;57541;47.408;18.822;2022-12-18T03:49:02;-3.07;94.92
70166;SHT30;57541;47.408;18.822;2022-12-18T03:49:51;-3.02;94.90
70166;SHT30;57541;47.408;18.822;2022-12-18T03:50:28;-3.02;94.89
70166;SHT30;57541;47.408;18.822;2022-12-18T03:51:18;-3.07;94.86
70166;SHT30;57541;47.408;18.822;2022-12-18T03:52:05;-3.04;95.02
70166;SHT30;57541;47.408;18.822;2022-12-18T03:53:06;-3.14;94.95
70166;SHT30;57541;47.408;18.822;2022-12-18T03:53:55;-3.09;95.17
70166;SHT30;57541;47.408;18.822;2022-12-18T03:54:30;-3.05;95.19
70166;SHT30;57541;47.408;18.822;2022-12-18T03:55:03;-3.12;95.17
70166;SHT30;57541;47.408;18.822;2022-12-18T03:55:37;-3.12;95.21
70166;SHT30;57541;47.408;18.822;2022-12-18T03:56:10;-3.16;95.18
70166;SHT30;57541;47.408;18.822;2022-12-18T03:56:48;-3.11;95.27
70166;SHT30;57541;47.408;18.822;2022-12-18T03:57:23;-3.07;95.21
70166;SHT30;57541;47.408;18.822;2022-12-18T03:57:57;-3.08;95.24
70166;SHT30;57541;47.408;18.822;2022-12-18T03:58:31;-3.11;95.16
70166;SHT30;57541;47.408;18.822;2022-12-18T03:59:05;-3.05;95.26
70166;SHT30;57541;47.408;18.822;2022-12-18T03:59:37;-3.12;95.14
70166;SHT30;57541;47.408;18.822;2022-12-18T04:00:14;-3.09;95.16
70166;SHT30;57541;47.408;18.822;2022-12-18T04:00:47;-3.14;95.15
70166;SHT30;57541;47.408;18.822;2022-12-18T04:01:23;-3.16;95.27
70166;SHT30;57541;47.408;18.822;2022-12-18T04:01:57;-3.14;95.26